Time;durP1;ratioP1;P1;durP2;ratioP2;P2;SDS_P1;SDS_P2;PMS_P1;PMS_P2;Temp;Humidity;BMP_temperature;BMP_pressure;BME280_temperature;BME280_humidity;BME280_pressure;Samples;Min_cycle;Max_cycle;Signal;HPM_P1;HPM_P2
2021/10/03 00:01:41;;;;;;;;;;;22.60;58.20;;;;;;5072263;28;20041;-58
2021/10/03 00:04:08;;;;;;;;;;;22.60;58.20;;;;;;5105122;27;19970;-58
2021/10/03 00:06:36;;;;;;;;;;;22.60;58.20;;;;;;5058777;28;19932;-58
2021/10/03 00:09:03;;;;;;;;;;;22.60;58.20;;;;;;5060349;28;20035;-58
2021/10/03 00:11:30;;;;;;;;;;;22.60;58.20;;;;;;5065824;28;19924;-55
2021/10/03 00:13:57;;;;;;;;;;;22.60;58.20;;;;;;5064506;28;19929;-58
2021/10/03 00:16:24;;;;;;;;;;;22.60;58.20;;;;;;5061616;28;19960;-56
2021/10/03 00:18:52;;;;;;;;;;;22.60;58.20;;;;;;5059515;28;19932;-59
2021/10/03 00:21:37;;;;;;;;;;;22.60;58.20;;;;;;5063546;28;19943;-59
2021/10/03 00:24:04;;;;;;;;;;;22.60;58.20;;;;;;5086855;28;19924;-56
2021/10/03 00:26:31;;;;;;;;;;;22.60;58.20;;;;;;5071966;28;19925;-56
2021/10/03 00:28:58;;;;;;;;;;;22.60;58.20;;;;;;5072318;28;19955;-57
2021/10/03 00:31:25;;;;;;;;;;;22.60;58.20;;;;;;5072212;28;19982;-58
2021/10/03 00:33:52;;;;;;;;;;;22.50;58.10;;;;;;5069546;28;20342;-57
2021/10/03 00:36:19;;;;;;;;;;;22.50;58.10;;;;;;5074638;28;19924;-58
2021/10/03 00:38:46;;;;;;;;;;;22.50;58.10;;;;;;5074600;28;19972;-58
2021/10/03 00:41:14;;;;;;;;;;;22.60;58.20;;;;;;5067496;28;19947;-58
2021/10/03 00:43:41;;;;;;;;;;;22.50;58.10;;;;;;5066423;28;19925;-58
2021/10/03 00:46:09;;;;;;;;;;;22.50;58.10;;;;;;5074782;28;20327;-58
2021/10/03 00:48:36;;;;;;;;;;;22.50;58.10;;;;;;5079407;28;19928;-58
2021/10/03 00:51:03;;;;;;;;;;;22.50;58.10;;;;;;5091035;28;19978;-59
2021/10/03 00:53:30;;;;;;;;;;;22.50;58.10;;;;;;5075594;28;20388;-55
2021/10/03 00:55:57;;;;;;;;;;;22.50;58.10;;;;;;5057621;28;19932;-57
2021/10/03 00:58:24;;;;;;;;;;;22.50;58.10;;;;;;5074343;28;20000;-58
2021/10/03 01:00:51;;;;;;;;;;;22.50;58.10;;;;;;5075563;28;19925;-58
2021/10/03 01:03:19;;;;;;;;;;;22.50;58.10;;;;;;5062791;28;19925;-56
2021/10/03 01:05:46;;;;;;;;;;;22.50;58.10;;;;;;5073812;28;20322;-57
2021/10/03 01:08:13;;;;;;;;;;;22.50;58.10;;;;;;5075596;28;19931;-58
2021/10/03 01:10:40;;;;;;;;;;;22.50;58.10;;;;;;5076787;28;19930;-55
2021/10/03 01:13:11;;;;;;;;;;;22.50;58.20;;;;;;5073819;28;20372;-56
2021/10/03 01:15:39;;;;;;;;;;;22.50;58.10;;;;;;5076297;28;19974;-58
2021/10/03 01:18:07;;;;;;;;;;;22.50;58.20;;;;;;5076199;28;20407;-57
2021/10/03 01:20:34;;;;;;;;;;;22.50;58.10;;;;;;5074895;28;20384;-58
2021/10/03 01:23:03;;;;;;;;;;;22.50;58.10;;;;;;5059573;28;19932;-57
2021/10/03 01:25:32;;;;;;;;;;;22.50;58.10;;;;;;5074752;28;19925;-58
2021/10/03 01:28:00;;;;;;;;;;;22.50;58.10;;;;;;5075028;28;19929;-57
2021/10/03 01:30:27;;;;;;;;;;;22.50;58.10;;;;;;5077330;28;19929;-58
2021/10/03 01:32:54;;;;;;;;;;;22.50;58.20;;;;;;5073314;28;19975;-57
2021/10/03 01:35:22;;;;;;;;;;;22.50;58.10;;;;;;5073542;28;19978;-57
2021/10/03 01:37:50;;;;;;;;;;;22.50;58.10;;;;;;5075904;28;19929;-57
2021/10/03 01:40:18;;;;;;;;;;;22.50;58.20;;;;;;5076127;28;19929;-58
2021/10/03 01:42:45;;;;;;;;;;;22.50;58.10;;;;;;5075043;28;19986;-56
2021/10/03 01:45:13;;;;;;;;;;;22.50;58.10;;;;;;5073652;28;19932;-56
2021/10/03 01:48:00;;;;;;;;;;;22.50;58.10;;;;;;5075386;28;19973;-57
2021/10/03 01:50:27;;;;;;;;;;;22.50;58.20;;;;;;5074349;28;20453;-58
2021/10/03 01:52:54;;;;;;;;;;;22.50;58.10;;;;;;5075976;28;20318;-58
2021/10/03 01:55:21;;;;;;;;;;;22.50;58.10;;;;;;5058123;28;19924;-57
2021/10/03 01:57:48;;;;;;;;;;;22.50;58.10;;;;;;5056881;28;20366;-58
2021/10/03 02:00:15;;;;;;;;;;;22.50;58.10;;;;;;5057628;28;19968;-57
2021/10/03 02:02:43;;;;;;;;;;;22.50;58.10;;;;;;5060702;28;19968;-59
2021/10/03 02:05:11;;;;;;;;;;;22.50;58.10;;;;;;5071300;28;19931;-58
2021/10/03 02:07:38;;;;;;;;;;;22.50;58.10;;;;;;5075562;28;20292;-58
2021/10/03 02:10:05;;;;;;;;;;;22.50;58.10;;;;;;5084331;28;19959;-57
2021/10/03 02:12:32;;;;;;;;;;;22.50;58.10;;;;;;5078549;28;19925;-57
2021/10/03 02:14:59;;;;;;;;;;;22.50;58.10;;;;;;5063293;28;19924;-58
2021/10/03 02:17:26;;;;;;;;;;;22.50;58.10;;;;;;5073781;28;20381;-58
2021/10/03 02:19:53;;;;;;;;;;;22.50;58.10;;;;;;5057654;28;19925;-57
2021/10/03 02:22:20;;;;;;;;;;;22.50;58.10;;;;;;5093201;28;19985;-58
2021/10/03 02:24:47;;;;;;;;;;;22.50;58.10;;;;;;5057651;28;19982;-58
2021/10/03 02:27:14;;;;;;;;;;;22.50;58.10;;;;;;5090266;28;19924;-58
2021/10/03 02:29:41;;;;;;;;;;;22.50;58.10;;;;;;5077119;28;20395;-57
2021/10/03 02:32:07;;;;;;;;;;;22.50;58.10;;;;;;5062706;28;20383;-59
2021/10/03 02:34:34;;;;;;;;;;;22.50;58.10;;;;;;5058601;28;19956;-59
2021/10/03 02:37:02;;;;;;;;;;;22.50;58.10;;;;;;5066485;28;20015;-59
2021/10/03 02:39:28;;;;;;;;;;;22.50;58.10;;;;;;5068655;28;19925;-58
2021/10/03 02:41:55;;;;;;;;;;;22.50;58.10;;;;;;5063564;28;19936;-58
2021/10/03 02:44:22;;;;;;;;;;;22.50;58.10;;;;;;5072543;28;19924;-57
2021/10/03 02:46:49;;;;;;;;;;;22.50;58.10;;;;;;5056854;28;19933;-56
2021/10/03 02:49:16;;;;;;;;;;;22.50;58.10;;;;;;5056444;28;19979;-58
2021/10/03 02:51:43;;;;;;;;;;;22.50;58.20;;;;;;5056153;28;19925;-58
2021/10/03 02:54:10;;;;;;;;;;;22.50;58.10;;;;;;5073913;28;19930;-59
2021/10/03 02:56:37;;;;;;;;;;;22.50;58.10;;;;;;5072390;28;19928;-57
2021/10/03 02:59:04;;;;;;;;;;;22.50;58.10;;;;;;5083865;28;19931;-58
2021/10/03 03:01:31;;;;;;;;;;;22.40;58.10;;;;;;5072810;28;19924;-58
2021/10/03 03:03:58;;;;;;;;;;;22.50;58.10;;;;;;5059269;28;19974;-59
2021/10/03 03:06:25;;;;;;;;;;;22.40;58.10;;;;;;5057852;28;19979;-58
2021/10/03 03:08:54;;;;;;;;;;;22.40;58.00;;;;;;5058211;28;20207;-58
2021/10/03 03:11:21;;;;;;;;;;;22.50;58.10;;;;;;5058873;28;20010;-56
2021/10/03 03:13:48;;;;;;;;;;;22.40;58.00;;;;;;5057778;28;19924;-58
2021/10/03 03:16:15;;;;;;;;;;;22.40;58.10;;;;;;5055270;28;19925;-58
2021/10/03 03:18:43;;;;;;;;;;;22.40;58.00;;;;;;5072519;28;19924;-58
2021/10/03 03:21:10;;;;;;;;;;;22.40;58.00;;;;;;5074097;28;19932;-58
2021/10/03 03:23:37;;;;;;;;;;;22.40;58.00;;;;;;5073053;28;19978;-58
2021/10/03 03:26:05;;;;;;;;;;;22.40;58.00;;;;;;5105121;27;19924;-58
2021/10/03 03:28:32;;;;;;;;;;;22.40;58.00;;;;;;5065175;28;20381;-58
2021/10/03 03:30:59;;;;;;;;;;;22.40;58.00;;;;;;5057081;28;19925;-57
2021/10/03 03:33:26;;;;;;;;;;;22.40;58.00;;;;;;5056985;28;19925;-58
2021/10/03 03:35:53;;;;;;;;;;;22.40;58.00;;;;;;5061893;28;19963;-57
2021/10/03 03:38:20;;;;;;;;;;;22.40;58.00;;;;;;5089022;28;19931;-57
2021/10/03 03:40:47;;;;;;;;;;;22.40;58.00;;;;;;5089946;28;19964;-58
2021/10/03 03:43:14;;;;;;;;;;;22.40;58.00;;;;;;5072421;28;19924;-57
2021/10/03 03:45:41;;;;;;;;;;;22.40;58.00;;;;;;5072322;28;20398;-57
2021/10/03 03:48:08;;;;;;;;;;;22.40;58.00;;;;;;5071327;28;20292;-58
2021/10/03 03:50:35;;;;;;;;;;;22.40;58.00;;;;;;5059667;28;20008;-57
2021/10/03 03:53:02;;;;;;;;;;;22.40;58.00;;;;;;5066122;28;19928;-57
2021/10/03 03:55:29;;;;;;;;;;;22.40;58.00;;;;;;5063837;28;19925;-57
2021/10/03 03:57:56;;;;;;;;;;;22.40;58.00;;;;;;5061762;28;20339;-58
2021/10/03 04:00:23;;;;;;;;;;;22.40;58.00;;;;;;5073301;28;20304;-58
2021/10/03 04:02:50;;;;;;;;;;;22.40;58.00;;;;;;5073185;28;19924;-58
2021/10/03 04:05:18;;;;;;;;;;;22.40;58.00;;;;;;5073862;28;19929;-58
2021/10/03 04:07:44;;;;;;;;;;;22.40;58.00;;;;;;5054554;28;20549;-58
2021/10/03 04:10:11;;;;;;;;;;;22.40;58.00;;;;;;5053746;28;20000;-57
2021/10/03 04:12:38;;;;;;;;;;;22.40;58.00;;;;;;5071390;28;19974;-57
2021/10/03 04:15:06;;;;;;;;;;;22.40;58.00;;;;;;5073068;28;19947;-58
2021/10/03 04:17:33;;;;;;;;;;;22.40;58.00;;;;;;5070536;28;20402;-58
2021/10/03 04:20:00;;;;;;;;;;;22.40;58.00;;;;;;5071824;28;19950;-58
2021/10/03 04:22:27;;;;;;;;;;;22.40;58.00;;;;;;5072978;28;19929;-58
2021/10/03 04:24:54;;;;;;;;;;;22.40;58.00;;;;;;5071931;28;19974;-57
2021/10/03 04:27:22;;;;;;;;;;;22.40;58.00;;;;;;5070553;28;20000;-58
2021/10/03 04:29:49;;;;;;;;;;;22.40;58.00;;;;;;5070315;28;19964;-58
2021/10/03 04:32:16;;;;;;;;;;;22.40;58.00;;;;;;5072055;28;20328;-58
2021/10/03 04:34:43;;;;;;;;;;;22.40;58.00;;;;;;5054320;28;19931;-57
2021/10/03 04:37:10;;;;;;;;;;;22.40;57.90;;;;;;5071999;28;20272;-58
2021/10/03 04:39:36;;;;;;;;;;;22.40;57.90;;;;;;5071867;28;19924;-58
2021/10/03 04:42:04;;;;;;;;;;;22.40;57.90;;;;;;5072776;28;19925;-58
2021/10/03 04:44:31;;;;;;;;;;;22.40;57.90;;;;;;5071527;28;19925;-55
2021/10/03 04:46:58;;;;;;;;;;;22.40;57.90;;;;;;5070439;28;19928;-59
2021/10/03 04:49:25;;;;;;;;;;;22.40;57.90;;;;;;5065339;28;19931;-59
2021/10/03 04:51:51;;;;;;;;;;;22.40;57.90;;;;;;5064017;28;19924;-55
2021/10/03 04:54:18;;;;;;;;;;;22.40;57.90;;;;;;5069375;28;20291;-58
2021/10/03 04:56:45;;;;;;;;;;;22.40;57.90;;;;;;5055839;28;19976;-57
2021/10/03 04:59:12;;;;;;;;;;;22.40;57.90;;;;;;5056651;28;19953;-58
2021/10/03 05:01:39;;;;;;;;;;;22.40;57.90;;;;;;5071571;28;19931;-58
2021/10/03 05:04:06;;;;;;;;;;;22.40;57.90;;;;;;5089506;28;19931;-58
2021/10/03 05:06:33;;;;;;;;;;;22.40;57.90;;;;;;5055125;28;19925;-58
2021/10/03 05:09:01;;;;;;;;;;;22.40;57.90;;;;;;5082925;28;20389;-57
2021/10/03 05:11:28;;;;;;;;;;;22.40;57.90;;;;;;5065326;28;19980;-58
2021/10/03 05:13:54;;;;;;;;;;;22.40;57.90;;;;;;5065393;28;19931;-58
2021/10/03 05:16:21;;;;;;;;;;;22.40;57.80;;;;;;5072849;28;20332;-57
2021/10/03 05:18:48;;;;;;;;;;;22.40;57.90;;;;;;5063228;28;19928;-58
2021/10/03 05:21:15;;;;;;;;;;;22.40;57.90;;;;;;5070983;28;20438;-58
2021/10/03 05:23:42;;;;;;;;;;;22.40;57.80;;;;;;5059492;28;19960;-57
2021/10/03 05:26:10;;;;;;;;;;;22.40;57.80;;;;;;5058766;28;19924;-59
2021/10/03 05:28:37;;;;;;;;;;;22.40;57.80;;;;;;5074941;28;20351;-58
2021/10/03 05:31:04;;;;;;;;;;;22.40;57.80;;;;;;5075377;28;19959;-57
2021/10/03 05:33:32;;;;;;;;;;;22.40;57.80;;;;;;5075651;28;19925;-57
2021/10/03 05:36:00;;;;;;;;;;;22.40;57.80;;;;;;5089231;28;19955;-58
2021/10/03 05:38:27;;;;;;;;;;;22.40;57.70;;;;;;5067840;28;19931;-58
2021/10/03 05:40:54;;;;;;;;;;;22.40;57.80;;;;;;5059560;28;20281;-58
2021/10/03 05:43:21;;;;;;;;;;;22.40;57.70;;;;;;5066344;28;20387;-59
2021/10/03 05:45:48;;;;;;;;;;;22.40;57.70;;;;;;5075833;28;20030;-57
2021/10/03 05:48:15;;;;;;;;;;;22.40;57.70;;;;;;5075051;28;19924;-58
2021/10/03 05:50:42;;;;;;;;;;;22.40;57.70;;;;;;5075767;28;19924;-58
2021/10/03 05:53:09;;;;;;;;;;;22.40;57.60;;;;;;5074573;28;20388;-58
2021/10/03 05:55:36;;;;;;;;;;;22.40;57.60;;;;;;5076050;28;19967;-59
2021/10/03 05:58:03;;;;;;;;;;;22.40;57.60;;;;;;5073356;28;20344;-58
2021/10/03 06:00:30;;;;;;;;;;;22.40;57.60;;;;;;5074218;28;20440;-59
2021/10/03 06:02:57;;;;;;;;;;;22.40;58.20;;;;;;5088528;28;19934;-57
2021/10/03 06:05:24;;;;;;;;;;;22.40;57.60;;;;;;5077495;28;20380;-59
2021/10/03 06:07:51;;;;;;;;;;;22.40;57.50;;;;;;5074036;28;19963;-58
2021/10/03 06:10:18;;;;;;;;;;;22.50;57.60;;;;;;5075478;28;19987;-58
2021/10/03 06:12:45;;;;;;;;;;;22.50;57.60;;;;;;5069642;28;20055;-59
2021/10/03 06:15:12;;;;;;;;;;;22.50;57.50;;;;;;5093671;28;20012;-58
2021/10/03 06:17:39;;;;;;;;;;;22.50;57.60;;;;;;5072366;28;20021;-58
2021/10/03 06:20:06;;;;;;;;;;;22.50;57.50;;;;;;5075399;28;19964;-58
2021/10/03 06:22:33;;;;;;;;;;;22.50;57.50;;;;;;5057450;28;19967;-59
2021/10/03 06:25:00;;;;;;;;;;;22.50;57.50;;;;;;5090906;28;19930;-58
2021/10/03 06:27:27;;;;;;;;;;;22.50;57.40;;;;;;5059593;28;19978;-57
2021/10/03 06:29:54;;;;;;;;;;;22.50;57.40;;;;;;5072282;28;19946;-58
2021/10/03 06:32:21;;;;;;;;;;;22.50;57.40;;;;;;5063941;28;19959;-57
2021/10/03 06:34:49;;;;;;;;;;;22.50;58.00;;;;;;5067954;28;19928;-59
2021/10/03 06:37:16;;;;;;;;;;;22.50;57.40;;;;;;5079958;28;20006;-57
2021/10/03 06:39:43;;;;;;;;;;;22.50;57.40;;;;;;5084404;28;19924;-58
2021/10/03 06:42:10;;;;;;;;;;;22.50;57.30;;;;;;5076990;28;19931;-57
2021/10/03 06:44:37;;;;;;;;;;;22.50;57.30;;;;;;5088440;28;20022;-57
2021/10/03 06:47:09;;;;;;;;;;;22.50;57.30;;;;;;5074894;28;20059;-59
2021/10/03 06:49:36;;;;;;;;;;;22.50;57.30;;;;;;5074292;28;19932;-57
2021/10/03 06:52:03;;;;;;;;;;;22.50;57.30;;;;;;5073447;28;19960;-58
2021/10/03 06:54:31;;;;;;;;;;;22.50;57.20;;;;;;5059693;28;20385;-56
2021/10/03 06:56:58;;;;;;;;;;;22.50;57.20;;;;;;5071619;28;19928;-59
2021/10/03 06:59:25;;;;;;;;;;;22.50;57.20;;;;;;5072331;28;19925;-58
2021/10/03 07:01:53;;;;;;;;;;;22.50;57.20;;;;;;5081873;28;20411;-58
2021/10/03 07:04:20;;;;;;;;;;;22.50;57.10;;;;;;5074242;28;19967;-59
2021/10/03 07:06:47;;;;;;;;;;;22.60;57.20;;;;;;5062871;28;19982;-58
2021/10/03 07:09:14;;;;;;;;;;;22.60;57.20;;;;;;5070144;28;19933;-58
2021/10/03 07:11:41;;;;;;;;;;;22.60;57.20;;;;;;5057380;28;19971;-57
2021/10/03 07:14:08;;;;;;;;;;;22.60;57.20;;;;;;5074197;28;20047;-58
2021/10/03 07:16:35;;;;;;;;;;;22.60;57.10;;;;;;5074259;28;20019;-56
2021/10/03 07:19:02;;;;;;;;;;;22.60;57.10;;;;;;5071186;28;20035;-58
2021/10/03 07:21:29;;;;;;;;;;;22.60;57.10;;;;;;5075391;28;19924;-56
2021/10/03 07:23:56;;;;;;;;;;;22.60;57.00;;;;;;5071747;28;19970;-58
2021/10/03 07:26:23;;;;;;;;;;;22.60;57.00;;;;;;5071615;28;20027;-58
2021/10/03 07:28:50;;;;;;;;;;;22.60;57.00;;;;;;5071396;28;20431;-59
2021/10/03 07:31:19;;;;;;;;;;;22.60;57.00;;;;;;5071449;28;19975;-58
2021/10/03 07:33:47;;;;;;;;;;;22.60;57.00;;;;;;5078238;28;19924;-58
2021/10/03 07:36:19;;;;;;;;;;;22.70;57.00;;;;;;5082675;28;19932;-59
2021/10/03 07:38:46;;;;;;;;;;;22.70;57.00;;;;;;5058633;28;19932;-58
2021/10/03 07:41:13;;;;;;;;;;;22.70;57.00;;;;;;5058340;28;19932;-59
2021/10/03 07:43:40;;;;;;;;;;;22.60;56.90;;;;;;5071560;28;19975;-58
2021/10/03 07:46:08;;;;;;;;;;;22.70;57.00;;;;;;5072649;28;19928;-58
2021/10/03 07:48:35;;;;;;;;;;;22.70;57.00;;;;;;5073796;28;19972;-58
2021/10/03 07:51:02;;;;;;;;;;;22.70;56.90;;;;;;5059884;28;19925;-58
2021/10/03 07:53:30;;;;;;;;;;;22.70;56.90;;;;;;5058328;28;19967;-58
2021/10/03 07:55:57;;;;;;;;;;;22.70;56.90;;;;;;5058069;28;19970;-56
2021/10/03 07:58:24;;;;;;;;;;;22.70;56.90;;;;;;5064589;28;20003;-58
2021/10/03 08:00:51;;;;;;;;;;;22.70;56.90;;;;;;5077729;28;19969;-58
2021/10/03 08:03:18;;;;;;;;;;;22.70;56.90;;;;;;5082638;28;19928;-59
2021/10/03 08:05:45;;;;;;;;;;;22.70;56.80;;;;;;5072189;28;20280;-58
2021/10/03 08:08:12;;;;;;;;;;;22.70;56.80;;;;;;5055963;28;19925;-59
2021/10/03 08:10:39;;;;;;;;;;;22.70;56.80;;;;;;5056131;28;19963;-59
2021/10/03 08:13:06;;;;;;;;;;;22.70;56.80;;;;;;5072612;28;19924;-58
2021/10/03 08:15:34;;;;;;;;;;;22.70;56.80;;;;;;5089028;28;19963;-56
2021/10/03 08:18:01;;;;;;;;;;;22.70;56.70;;;;;;5075928;28;19928;-58
2021/10/03 08:20:28;;;;;;;;;;;22.70;56.80;;;;;;5060334;28;19979;-58
2021/10/03 08:22:55;;;;;;;;;;;22.80;56.80;;;;;;5058029;28;19925;-59
2021/10/03 08:25:22;;;;;;;;;;;22.70;56.70;;;;;;5071003;28;20405;-58
2021/10/03 08:27:49;;;;;;;;;;;22.80;56.80;;;;;;5081822;28;20416;-59
2021/10/03 08:30:16;;;;;;;;;;;22.80;56.80;;;;;;5073522;28;19963;-57
2021/10/03 08:32:43;;;;;;;;;;;22.80;56.80;;;;;;5070498;28;19974;-58
2021/10/03 08:35:10;;;;;;;;;;;22.80;56.80;;;;;;5057172;28;19924;-59
2021/10/03 08:37:37;;;;;;;;;;;22.80;56.80;;;;;;5057011;28;19943;-58
2021/10/03 08:40:06;;;;;;;;;;;22.80;56.80;;;;;;5071863;28;19928;-59
2021/10/03 08:42:33;;;;;;;;;;;22.80;56.80;;;;;;5071751;28;19970;-59
2021/10/03 08:45:01;;;;;;;;;;;22.80;56.80;;;;;;5071503;28;20394;-59
2021/10/03 08:47:28;;;;;;;;;;;22.80;56.80;;;;;;5060277;28;20003;-59
2021/10/03 08:49:55;;;;;;;;;;;22.80;56.80;;;;;;5066580;28;19924;-58
2021/10/03 08:52:22;;;;;;;;;;;22.80;56.70;;;;;;5065731;28;20020;-58
2021/10/03 08:54:50;;;;;;;;;;;22.80;56.70;;;;;;5061908;28;20435;-57
2021/10/03 08:57:17;;;;;;;;;;;22.80;56.70;;;;;;5075360;28;20015;-59
2021/10/03 09:00:00;;;;;;;;;;;22.80;56.70;;;;;;5075243;28;19972;-58
2021/10/03 09:02:27;;;;;;;;;;;22.80;56.70;;;;;;5075485;28;20283;-57
2021/10/03 09:04:57;;;;;;;;;;;22.80;56.70;;;;;;5059231;28;20007;-58
2021/10/03 09:07:24;;;;;;;;;;;22.80;56.70;;;;;;5076652;28;19931;-58
2021/10/03 09:09:59;;;;;;;;;;;22.90;56.70;;;;;;5074104;28;19962;-58
2021/10/03 09:12:36;;;;;;;;;;;22.90;56.70;;;;;;5058033;28;20300;-58
2021/10/03 09:15:04;;;;;;;;;;;22.90;56.70;;;;;;5075153;28;19970;-58
2021/10/03 09:17:31;;;;;;;;;;;22.90;56.70;;;;;;5067732;28;19932;-59
2021/10/03 09:20:09;;;;;;;;;;;22.90;56.70;;;;;;5061015;28;19978;-59
2021/10/03 09:22:51;;;;;;;;;;;22.90;56.70;;;;;;5071767;28;19967;-57
2021/10/03 09:25:30;;;;;;;;;;;22.90;56.70;;;;;;5075188;28;19967;-59
2021/10/03 09:27:57;;;;;;;;;;;22.90;56.70;;;;;;5074504;28;19968;-57
2021/10/03 09:30:24;;;;;;;;;;;22.90;56.70;;;;;;5075329;28;19931;-58
2021/10/03 09:32:56;;;;;;;;;;;22.90;56.70;;;;;;5075169;28;20035;-58
2021/10/03 09:35:24;;;;;;;;;;;22.90;56.70;;;;;;5075895;28;20015;-56
2021/10/03 09:37:51;;;;;;;;;;;22.90;56.70;;;;;;5074619;28;20020;-58
2021/10/03 09:40:18;;;;;;;;;;;22.90;56.70;;;;;;5073375;28;19998;-57
2021/10/03 09:43:00;;;;;;;;;;;22.90;56.70;;;;;;5076358;28;19928;-58
2021/10/03 09:45:27;;;;;;;;;;;22.90;56.70;;;;;;5058435;28;19963;-59
2021/10/03 09:48:04;;;;;;;;;;;22.90;56.70;;;;;;5074529;28;19925;-58
2021/10/03 09:50:32;;;;;;;;;;;22.90;56.70;;;;;;5074912;28;20326;-58
2021/10/03 09:52:59;;;;;;;;;;;22.90;56.70;;;;;;5073554;28;19932;-57
2021/10/03 09:55:27;;;;;;;;;;;22.90;56.70;;;;;;5074847;28;19931;-58
2021/10/03 09:57:55;;;;;;;;;;;23.00;56.80;;;;;;5075259;28;19974;-58
2021/10/03 10:00:27;;;;;;;;;;;23.00;56.80;;;;;;5075533;28;19931;-58
2021/10/03 10:02:54;;;;;;;;;;;23.00;56.80;;;;;;5074270;28;19924;-58
2021/10/03 10:05:23;;;;;;;;;;;23.00;56.80;;;;;;5074225;28;19989;-58
2021/10/03 10:07:50;;;;;;;;;;;23.00;56.80;;;;;;5066808;28;19961;-56
2021/10/03 10:10:18;;;;;;;;;;;23.00;56.80;;;;;;5062911;28;19974;-58
2021/10/03 10:12:47;;;;;;;;;;;23.00;56.80;;;;;;5072294;28;19924;-59
2021/10/03 10:15:14;;;;;;;;;;;22.90;56.80;;;;;;5059472;28;19967;-58
2021/10/03 10:17:41;;;;;;;;;;;22.90;56.80;;;;;;5075302;28;20022;-56
2021/10/03 10:20:17;;;;;;;;;;;23.00;56.90;;;;;;5072875;28;19931;-57
2021/10/03 10:22:54;;;;;;;;;;;23.00;56.90;;;;;;5074404;28;19928;-59
2021/10/03 10:25:39;;;;;;;;;;;23.00;56.90;;;;;;5072651;28;19964;-58
2021/10/03 10:28:08;;;;;;;;;;;23.00;56.90;;;;;;5073507;28;19932;-58
2021/10/03 10:30:35;;;;;;;;;;;23.00;56.90;;;;;;5073063;28;19989;-58
2021/10/03 10:33:04;;;;;;;;;;;23.00;56.90;;;;;;5073426;28;20467;-58
2021/10/03 10:35:32;;;;;;;;;;;23.00;56.90;;;;;;5061761;28;20003;-58
2021/10/03 10:38:02;;;;;;;;;;;23.00;56.90;;;;;;5068371;28;20445;-59
2021/10/03 10:40:32;;;;;;;;;;;23.00;56.90;;;;;;5083236;28;20368;-58
2021/10/03 10:43:01;;;;;;;;;;;23.00;57.00;;;;;;5082653;28;20327;-59
2021/10/03 10:45:28;;;;;;;;;;;23.00;57.00;;;;;;5068873;28;19974;-59
2021/10/03 10:48:11;;;;;;;;;;;23.00;57.60;;;;;;5063537;28;19924;-59
2021/10/03 10:50:40;;;;;;;;;;;23.00;57.00;;;;;;5084605;28;19959;-59
2021/10/03 10:53:26;;;;;;;;;;;23.00;57.00;;;;;;5071822;28;19947;-58
2021/10/03 10:56:08;;;;;;;;;;;23.00;57.00;;;;;;5057649;28;20452;-59
2021/10/03 10:58:39;;;;;;;;;;;23.00;57.00;;;;;;5059375;28;20404;-59
2021/10/03 11:01:06;;;;;;;;;;;23.00;57.00;;;;;;5073008;28;19924;-58
2021/10/03 11:03:42;;;;;;;;;;;23.00;57.00;;;;;;5074523;28;19968;-58
2021/10/03 11:06:14;;;;;;;;;;;23.00;57.10;;;;;;5087949;28;19924;-57
2021/10/03 11:09:00;;;;;;;;;;;23.00;57.10;;;;;;5055970;28;19925;-59
2021/10/03 11:11:47;;;;;;;;;;;23.00;57.10;;;;;;5073894;28;19963;-58
2021/10/03 11:14:17;;;;;;;;;;;23.00;57.10;;;;;;5055512;28;20030;-56
2021/10/03 11:16:48;;;;;;;;;;;23.00;57.10;;;;;;5072641;28;20014;-59
2021/10/03 11:19:16;;;;;;;;;;;23.00;57.10;;;;;;5056621;28;20356;-58
2021/10/03 11:21:47;;;;;;;;;;;23.00;57.10;;;;;;5057264;28;19929;-58
2021/10/03 11:24:18;;;;;;;;;;;23.00;57.00;;;;;;5083229;28;19924;-58
2021/10/03 11:27:11;;;;;;;;;;;23.00;57.10;;;;;;5065447;28;19925;-59
2021/10/03 11:29:49;;;;;;;;;;;23.00;57.10;;;;;;5057258;28;19931;-58
2021/10/03 11:32:21;;;;;;;;;;;23.00;57.10;;;;;;5082993;28;20001;-57
2021/10/03 11:34:51;;;;;;;;;;;23.00;57.10;;;;;;5078887;28;19982;-58
2021/10/03 11:37:21;;;;;;;;;;;23.00;57.10;;;;;;5063301;28;19970;-58
2021/10/03 11:39:51;;;;;;;;;;;23.00;57.10;;;;;;5058242;28;19975;-58
2021/10/03 11:42:27;;;;;;;;;;;23.00;57.10;;;;;;5062727;28;19968;-57
2021/10/03 11:44:59;;;;;;;;;;;23.10;57.20;;;;;;5067522;28;19974;-58
2021/10/03 11:47:35;;;;;;;;;;;23.00;57.10;;;;;;5063466;28;19924;-59
2021/10/03 11:50:03;;;;;;;;;;;23.00;57.10;;;;;;5072145;28;19928;-58
2021/10/03 11:52:31;;;;;;;;;;;23.10;57.20;;;;;;5072012;28;19924;-57
2021/10/03 11:54:59;;;;;;;;;;;23.10;57.20;;;;;;5104517;28;20007;-58
2021/10/03 11:57:29;;;;;;;;;;;23.10;57.20;;;;;;5055590;28;20331;-58
2021/10/03 12:00:07;;;;;;;;;;;23.10;57.20;;;;;;5072582;28;19924;-58
2021/10/03 12:02:40;;;;;;;;;;;23.10;57.20;;;;;;5072076;28;20283;-59
2021/10/03 12:05:08;;;;;;;;;;;23.00;57.10;;;;;;5056476;28;19947;-59
2021/10/03 12:07:35;;;;;;;;;;;23.00;57.10;;;;;;5084846;28;19924;-55
2021/10/03 12:10:03;;;;;;;;;;;23.10;57.20;;;;;;5087406;28;19973;-59
2021/10/03 12:12:49;;;;;;;;;;;23.10;57.20;;;;;;5088649;28;19924;-58
2021/10/03 12:15:34;;;;;;;;;;;23.10;57.20;;;;;;5066181;28;19925;-58
2021/10/03 12:18:01;;;;;;;;;;;23.10;57.20;;;;;;5066533;28;19928;-58
2021/10/03 12:20:47;;;;;;;;;;;23.10;57.20;;;;;;5063183;28;19925;-58
2021/10/03 12:23:13;;;;;;;;;;;23.10;57.20;;;;;;5057611;28;19956;-58
2021/10/03 12:25:41;;;;;;;;;;;23.10;57.10;;;;;;5058922;28;19967;-58
2021/10/03 12:28:08;;;;;;;;;;;23.10;57.10;;;;;;5077176;28;20011;-59
2021/10/03 12:30:45;;;;;;;;;;;23.10;57.10;;;;;;5072000;28;19929;-58
2021/10/03 12:33:12;;;;;;;;;;;23.10;57.10;;;;;;5070554;28;20006;-58
2021/10/03 12:35:41;;;;;;;;;;;23.10;57.10;;;;;;5058299;28;19932;-58
2021/10/03 12:38:07;;;;;;;;;;;23.10;57.10;;;;;;5073213;28;20011;-60
2021/10/03 12:40:34;;;;;;;;;;;23.10;57.10;;;;;;5071966;28;20024;-59
2021/10/03 12:43:01;;;;;;;;;;;23.10;57.10;;;;;;5071815;28;19931;-58
2021/10/03 12:45:28;;;;;;;;;;;23.10;57.00;;;;;;5071579;28;19963;-58
2021/10/03 12:47:55;;;;;;;;;;;23.10;57.10;;;;;;5071724;28;19990;-58
2021/10/03 12:50:22;;;;;;;;;;;23.10;57.10;;;;;;5072714;28;19924;-58
2021/10/03 12:52:49;;;;;;;;;;;23.10;57.10;;;;;;5073890;28;19933;-57
2021/10/03 12:55:19;;;;;;;;;;;23.10;57.10;;;;;;5064652;28;19925;-57
2021/10/03 12:57:46;;;;;;;;;;;23.20;57.10;;;;;;5055838;28;20016;-58
2021/10/03 13:00:13;;;;;;;;;;;23.20;57.10;;;;;;5058960;28;20337;-57
2021/10/03 13:02:40;;;;;;;;;;;23.10;57.00;;;;;;5070492;28;20295;-58
2021/10/03 13:05:07;;;;;;;;;;;23.10;57.00;;;;;;5072998;28;19956;-59
2021/10/03 13:07:34;;;;;;;;;;;23.20;57.10;;;;;;5071833;28;19924;-58
2021/10/03 13:10:02;;;;;;;;;;;23.20;57.10;;;;;;5069570;28;19928;-59
2021/10/03 13:12:29;;;;;;;;;;;23.20;57.10;;;;;;5072350;28;19964;-58
2021/10/03 13:14:56;;;;;;;;;;;23.20;57.00;;;;;;5071136;28;20423;-59
2021/10/03 13:17:23;;;;;;;;;;;23.20;57.00;;;;;;5072419;28;19925;-59
2021/10/03 13:19:50;;;;;;;;;;;23.20;57.00;;;;;;5070963;28;19975;-58
2021/10/03 13:22:17;;;;;;;;;;;23.20;57.00;;;;;;5069930;28;20440;-58
2021/10/03 13:24:44;;;;;;;;;;;23.10;57.00;;;;;;5071410;28;19925;-58
2021/10/03 13:27:10;;;;;;;;;;;23.20;57.10;;;;;;5071166;28;20034;-57
2021/10/03 13:29:37;;;;;;;;;;;23.10;57.00;;;;;;5071127;28;19924;-58
2021/10/03 13:32:05;;;;;;;;;;;23.20;57.10;;;;;;5055398;28;20018;-58
2021/10/03 13:34:32;;;;;;;;;;;23.20;57.10;;;;;;5073250;28;20011;-58
2021/10/03 13:36:59;;;;;;;;;;;23.20;57.00;;;;;;5055311;28;19964;-57
2021/10/03 13:39:26;;;;;;;;;;;23.20;57.10;;;;;;5056522;28;19924;-58
2021/10/03 13:41:53;;;;;;;;;;;23.20;57.30;;;;;;5072108;28;19963;-57
2021/10/03 13:44:20;;;;;;;;;;;23.20;57.00;;;;;;5086561;28;19989;-58
2021/10/03 13:46:47;;;;;;;;;;;23.20;57.00;;;;;;5081744;28;20014;-58
2021/10/03 13:49:14;;;;;;;;;;;23.20;57.00;;;;;;5074780;28;19925;-58
2021/10/03 13:51:41;;;;;;;;;;;23.20;57.00;;;;;;5074428;28;20027;-58
2021/10/03 13:54:08;;;;;;;;;;;23.20;57.00;;;;;;5073733;28;19974;-59
2021/10/03 13:56:35;;;;;;;;;;;23.20;57.00;;;;;;5074224;28;19963;-58
2021/10/03 13:59:02;;;;;;;;;;;23.20;57.00;;;;;;5107788;28;19932;-58
2021/10/03 14:01:28;;;;;;;;;;;23.20;57.00;;;;;;5074327;28;19928;-58
2021/10/03 14:03:55;;;;;;;;;;;23.20;57.00;;;;;;5057626;28;19925;-57
2021/10/03 14:06:22;;;;;;;;;;;23.20;57.00;;;;;;5089498;28;19932;-58
2021/10/03 14:08:49;;;;;;;;;;;23.20;57.00;;;;;;5063616;28;19931;-58
2021/10/03 14:11:16;;;;;;;;;;;23.20;57.60;;;;;;5068921;28;19999;-58
2021/10/03 14:13:43;;;;;;;;;;;23.20;57.00;;;;;;5065584;28;20459;-57
2021/10/03 14:16:11;;;;;;;;;;;23.20;57.00;;;;;;5060408;28;19968;-58
2021/10/03 14:18:38;;;;;;;;;;;23.10;57.00;;;;;;5058502;28;19963;-59
2021/10/03 14:21:05;;;;;;;;;;;23.20;57.00;;;;;;5061452;28;20017;-59
2021/10/03 14:23:32;;;;;;;;;;;23.20;57.00;;;;;;5073727;28;20027;-58